sensor_id;sensor_type;location;lat;lon;timestamp;temperature;humidity
34726;DHT22;20951;50.818;4.344;2022-12-29T00:02:11;11.30;99.90
34726;DHT22;20951;50.818;4.344;2022-12-29T00:04:37;11.40;99.90
34726;DHT22;20951;50.818;4.344;2022-12-29T00:07:03;11.30;99.90
34726;DHT22;20951;50.818;4.344;2022-12-29T00:09:32;11.30;99.90
34726;DHT22;20951;50.818;4.344;2022-12-29T00:11:59;11.40;99.90
34726;DHT22;20951;50.818;4.344;2022-12-29T00:14:26;11.40;99.90
34726;DHT22;20951;50.818;4.344;2022-12-29T00:17:10;11.40;99.90
34726;DHT22;20951;50.818;4.344;2022-12-29T00:19:36;11.40;99.90
34726;DHT22;20951;50.818;4.344;2022-12-29T00:22:20;11.50;99.90
34726;DHT22;20951;50.818;4.344;2022-12-29T00:25:07;11.60;99.90
34726;DHT22;20951;50.818;4.344;2022-12-29T00:27:52;11.60;99.90
34726;DHT22;20951;50.818;4.344;2022-12-29T00:30:36;11.60;99.90
34726;DHT22;20951;50.818;4.344;2022-12-29T00:33:22;11.50;99.90
34726;DHT22;20951;50.818;4.344;2022-12-29T00:36:13;11.60;99.90
34726;DHT22;20951;50.818;4.344;2022-12-29T00:38:47;11.70;99.90
34726;DHT22;20951;50.818;4.344;2022-12-29T00:41:40;11.70;99.90
34726;DHT22;20951;50.818;4.344;2022-12-29T00:44:25;11.80;99.90
34726;DHT22;20951;50.818;4.344;2022-12-29T00:46:50;11.90;99.90
34726;DHT22;20951;50.818;4.344;2022-12-29T00:49:16;11.90;99.90
34726;DHT22;20951;50.818;4.344;2022-12-29T00:52:08;12.00;99.90
34726;DHT22;20951;50.818;4.344;2022-12-29T00:54:36;12.00;99.90
34726;DHT22;20951;50.818;4.344;2022-12-29T00:57:04;11.90;99.90
34726;DHT22;20951;50.818;4.344;2022-12-29T00:59:30;11.90;99.90
34726;DHT22;20951;50.818;4.344;2022-12-29T01:01:56;11.90;99.90
34726;DHT22;20951;50.818;4.344;2022-12-29T01:04:24;12.00;99.90
34726;DHT22;20951;50.818;4.344;2022-12-29T01:06:50;12.00;99.90
34726;DHT22;20951;50.818;4.344;2022-12-29T01:09:17;12.00;99.90
34726;DHT22;20951;50.818;4.344;2022-12-29T01:12:01;11.90;99.90
34726;DHT22;20951;50.818;4.344;2022-12-29T01:14:27;11.90;99.90
34726;DHT22;20951;50.818;4.344;2022-12-29T01:16:54;11.70;99.90
34726;DHT22;20951;50.818;4.344;2022-12-29T01:19:20;11.70;99.90
34726;DHT22;20951;50.818;4.344;2022-12-29T01:21:47;11.50;99.90
34726;DHT22;20951;50.818;4.344;2022-12-29T01:24:14;11.40;99.90
34726;DHT22;20951;50.818;4.344;2022-12-29T01:26:40;11.30;99.90
34726;DHT22;20951;50.818;4.344;2022-12-29T01:29:05;11.40;99.90
34726;DHT22;20951;50.818;4.344;2022-12-29T01:31:31;11.30;99.90
34726;DHT22;20951;50.818;4.344;2022-12-29T01:33:57;11.20;99.90
34726;DHT22;20951;50.818;4.344;2022-12-29T01:36:24;11.20;99.90
34726;DHT22;20951;50.818;4.344;2022-12-29T01:38:49;11.10;99.90
34726;DHT22;20951;50.818;4.344;2022-12-29T01:41:16;11.00;99.90
34726;DHT22;20951;50.818;4.344;2022-12-29T01:48:51;11.00;99.90
34726;DHT22;20951;50.818;4.344;2022-12-29T01:51:18;10.90;99.90
34726;DHT22;20951;50.818;4.344;2022-12-29T01:53:45;11.00;99.90
34726;DHT22;20951;50.818;4.344;2022-12-29T01:56:13;11.00;99.90
34726;DHT22;20951;50.818;4.344;2022-12-29T01:58:44;11.00;99.90
34726;DHT22;20951;50.818;4.344;2022-12-29T02:01:10;10.90;99.90
34726;DHT22;20951;50.818;4.344;2022-12-29T02:03:36;10.90;99.90
34726;DHT22;20951;50.818;4.344;2022-12-29T02:06:11;11.00;99.90
34726;DHT22;20951;50.818;4.344;2022-12-29T02:08:38;11.00;99.90
34726;DHT22;20951;50.818;4.344;2022-12-29T02:11:05;10.90;99.90
34726;DHT22;20951;50.818;4.344;2022-12-29T02:13:31;10.90;99.90
34726;DHT22;20951;50.818;4.344;2022-12-29T02:16:04;10.80;99.90
34726;DHT22;20951;50.818;4.344;2022-12-29T02:18:52;10.70;99.90
34726;DHT22;20951;50.818;4.344;2022-12-29T02:21:33;10.50;99.90
34726;DHT22;20951;50.818;4.344;2022-12-29T02:32:19;10.20;99.90
34726;DHT22;20951;50.818;4.344;2022-12-29T02:35:05;10.20;99.90
34726;DHT22;20951;50.818;4.344;2022-12-29T02:37:41;10.10;99.90
34726;DHT22;20951;50.818;4.344;2022-12-29T02:40:16;10.20;99.90
34726;DHT22;20951;50.818;4.344;2022-12-29T02:43:04;10.30;99.90
34726;DHT22;20951;50.818;4.344;2022-12-29T02:48:29;10.20;99.90
34726;DHT22;20951;50.818;4.344;2022-12-29T02:51:06;10.30;99.90
34726;DHT22;20951;50.818;4.344;2022-12-29T02:53:35;10.10;99.90
34726;DHT22;20951;50.818;4.344;2022-12-29T02:56:20;10.20;99.90
34726;DHT22;20951;50.818;4.344;2022-12-29T02:58:46;10.10;99.90
34726;DHT22;20951;50.818;4.344;2022-12-29T03:01:23;10.10;99.90
34726;DHT22;20951;50.818;4.344;2022-12-29T03:12:11;9.70;99.90
34726;DHT22;20951;50.818;4.344;2022-12-29T03:14:59;9.60;99.90
34726;DHT22;20951;50.818;4.344;2022-12-29T03:17:57;9.50;99.90
34726;DHT22;20951;50.818;4.344;2022-12-29T03:20:28;9.50;99.90
34726;DHT22;20951;50.818;4.344;2022-12-29T03:23:00;9.60;99.90
34726;DHT22;20951;50.818;4.344;2022-12-29T03:25:33;9.70;99.90
34726;DHT22;20951;50.818;4.344;2022-12-29T03:28:03;9.70;99.90
34726;DHT22;20951;50.818;4.344;2022-12-29T03:30:32;9.80;99.90
34726;DHT22;20951;50.818;4.344;2022-12-29T03:33:02;9.90;99.90
34726;DHT22;20951;50.818;4.344;2022-12-29T03:35:31;9.90;99.90
34726;DHT22;20951;50.818;4.344;2022-12-29T03:38:34;9.90;99.90
34726;DHT22;20951;50.818;4.344;2022-12-29T03:41:08;10.00;99.90
34726;DHT22;20951;50.818;4.344;2022-12-29T03:43:36;10.10;99.90
34726;DHT22;20951;50.818;4.344;2022-12-29T03:46:02;10.10;99.90
34726;DHT22;20951;50.818;4.344;2022-12-29T03:48:28;10.20;99.90
34726;DHT22;20951;50.818;4.344;2022-12-29T03:50:54;10.20;99.90
34726;DHT22;20951;50.818;4.344;2022-12-29T03:53:19;10.20;99.90
34726;DHT22;20951;50.818;4.344;2022-12-29T03:55:45;10.20;99.90
34726;DHT22;20951;50.818;4.344;2022-12-29T03:58:11;10.20;99.90
34726;DHT22;20951;50.818;4.344;2022-12-29T04:00:37;10.10;99.90
34726;DHT22;20951;50.818;4.344;2022-12-29T04:03:03;10.10;99.90
34726;DHT22;20951;50.818;4.344;2022-12-29T04:05:28;10.00;99.90
34726;DHT22;20951;50.818;4.344;2022-12-29T04:07:54;10.00;99.90
34726;DHT22;20951;50.818;4.344;2022-12-29T04:10:20;10.00;99.90
34726;DHT22;20951;50.818;4.344;2022-12-29T04:12:46;10.00;99.90
34726;DHT22;20951;50.818;4.344;2022-12-29T04:15:12;10.00;99.90
34726;DHT22;20951;50.818;4.344;2022-12-29T04:17:38;10.00;99.90
34726;DHT22;20951;50.818;4.344;2022-12-29T04:20:04;10.00;99.90
34726;DHT22;20951;50.818;4.344;2022-12-29T04:22:49;10.10;99.90
34726;DHT22;20951;50.818;4.344;2022-12-29T04:25:15;10.10;99.90
34726;DHT22;20951;50.818;4.344;2022-12-29T04:27:41;10.10;99.90
34726;DHT22;20951;50.818;4.344;2022-12-29T04:30:07;10.10;99.90
34726;DHT22;20951;50.818;4.344;2022-12-29T04:32:33;10.00;99.90
34726;DHT22;20951;50.818;4.344;2022-12-29T04:34:58;10.10;99.90
34726;DHT22;20951;50.818;4.344;2022-12-29T04:37:24;10.00;99.90
34726;DHT22;20951;50.818;4.344;2022-12-29T04:39:50;10.00;99.90
34726;DHT22;20951;50.818;4.344;2022-12-29T04:42:16;10.00;99.90
34726;DHT22;20951;50.818;4.344;2022-12-29T04:44:41;10.10;99.90
34726;DHT22;20951;50.818;4.344;2022-12-29T04:47:07;10.10;99.90
34726;DHT22;20951;50.818;4.344;2022-12-29T04:49:33;10.20;99.90
34726;DHT22;20951;50.818;4.344;2022-12-29T04:51:59;10.20;99.90
34726;DHT22;20951;50.818;4.344;2022-12-29T04:54:24;10.30;99.90
34726;DHT22;20951;50.818;4.344;2022-12-29T04:56:50;10.40;99.90
34726;DHT22;20951;50.818;4.344;2022-12-29T04:59:16;10.40;99.90
34726;DHT22;20951;50.818;4.344;2022-12-29T05:01:42;10.50;99.90
34726;DHT22;20951;50.818;4.344;2022-12-29T05:04:08;10.50;99.90
34726;DHT22;20951;50.818;4.344;2022-12-29T05:06:33;10.50;99.90
34726;DHT22;20951;50.818;4.344;2022-12-29T05:08:59;10.50;99.90
34726;DHT22;20951;50.818;4.344;2022-12-29T05:11:25;10.60;99.90
34726;DHT22;20951;50.818;4.344;2022-12-29T05:13:51;10.50;99.90
34726;DHT22;20951;50.818;4.344;2022-12-29T05:16:16;10.50;99.90
34726;DHT22;20951;50.818;4.344;2022-12-29T05:18:42;10.60;99.90
34726;DHT22;20951;50.818;4.344;2022-12-29T05:21:08;10.60;99.90
34726;DHT22;20951;50.818;4.344;2022-12-29T05:23:34;10.50;99.90
34726;DHT22;20951;50.818;4.344;2022-12-29T05:25:59;10.50;99.90
34726;DHT22;20951;50.818;4.344;2022-12-29T05:28:25;10.50;99.90
34726;DHT22;20951;50.818;4.344;2022-12-29T05:30:51;10.60;99.90
34726;DHT22;20951;50.818;4.344;2022-12-29T05:33:18;10.70;99.90
34726;DHT22;20951;50.818;4.344;2022-12-29T05:35:45;10.70;99.90
34726;DHT22;20951;50.818;4.344;2022-12-29T05:38:11;10.80;99.90
34726;DHT22;20951;50.818;4.344;2022-12-29T05:40:37;10.70;99.90
34726;DHT22;20951;50.818;4.344;2022-12-29T05:43:03;10.80;99.90
34726;DHT22;20951;50.818;4.344;2022-12-29T05:45:28;10.70;99.90
34726;DHT22;20951;50.818;4.344;2022-12-29T05:47:54;10.70;99.90
34726;DHT22;20951;50.818;4.344;2022-12-29T05:50:20;10.70;99.90
34726;DHT22;20951;50.818;4.344;2022-12-29T05:52:46;10.70;99.90
34726;DHT22;20951;50.818;4.344;2022-12-29T05:55:12;10.80;99.90
34726;DHT22;20951;50.818;4.344;2022-12-29T05:57:37;10.60;99.90
34726;DHT22;20951;50.818;4.344;2022-12-29T06:00:05;10.60;99.90
34726;DHT22;20951;50.818;4.344;2022-12-29T06:02:30;10.50;99.90
34726;DHT22;20951;50.818;4.344;2022-12-29T06:04:56;10.50;99.90
34726;DHT22;20951;50.818;4.344;2022-12-29T06:07:22;10.60;99.90
34726;DHT22;20951;50.818;4.344;2022-12-29T06:09:48;10.70;99.90
34726;DHT22;20951;50.818;4.344;2022-12-29T06:12:14;10.60;99.90
34726;DHT22;20951;50.818;4.344;2022-12-29T06:14:39;10.70;99.90
34726;DHT22;20951;50.818;4.344;2022-12-29T06:17:05;10.60;99.90
34726;DHT22;20951;50.818;4.344;2022-12-29T06:19:32;10.50;99.90
34726;DHT22;20951;50.818;4.344;2022-12-29T06:21:58;10.50;99.90
34726;DHT22;20951;50.818;4.344;2022-12-29T06:24:23;10.50;99.90
34726;DHT22;20951;50.818;4.344;2022-12-29T06:26:49;10.60;99.90
34726;DHT22;20951;50.818;4.344;2022-12-29T06:29:15;10.60;99.90
34726;DHT22;20951;50.818;4.344;2022-12-29T06:31:43;10.70;99.90
34726;DHT22;20951;50.818;4.344;2022-12-29T06:34:11;10.70;99.90
34726;DHT22;20951;50.818;4.344;2022-12-29T06:36:37;10.60;99.90
34726;DHT22;20951;50.818;4.344;2022-12-29T06:39:03;10.70;99.90
34726;DHT22;20951;50.818;4.344;2022-12-29T06:41:29;10.70;99.90
34726;DHT22;20951;50.818;4.344;2022-12-29T06:43:55;10.80;99.90
34726;DHT22;20951;50.818;4.344;2022-12-29T06:46:20;10.90;99.90
34726;DHT22;20951;50.818;4.344;2022-12-29T06:48:46;10.80;99.90
34726;DHT22;20951;50.818;4.344;2022-12-29T06:51:12;11.00;99.90
34726;DHT22;20951;50.818;4.344;2022-12-29T06:53:38;10.90;99.90
34726;DHT22;20951;50.818;4.344;2022-12-29T06:56:04;10.90;99.90
34726;DHT22;20951;50.818;4.344;2022-12-29T06:58:30;10.90;99.90
34726;DHT22;20951;50.818;4.344;2022-12-29T07:00:56;11.00;99.90
34726;DHT22;20951;50.818;4.344;2022-12-29T07:03:21;10.90;99.90
34726;DHT22;20951;50.818;4.344;2022-12-29T07:05:47;11.00;99.90
34726;DHT22;20951;50.818;4.344;2022-12-29T07:08:13;10.80;99.90
34726;DHT22;20951;50.818;4.344;2022-12-29T07:10:39;10.70;99.90
34726;DHT22;20951;50.818;4.344;2022-12-29T07:13:05;10.80;99.90
34726;DHT22;20951;50.818;4.344;2022-12-29T07:15:34;10.70;99.90
34726;DHT22;20951;50.818;4.344;2022-12-29T07:17:59;10.70;99.90
34726;DHT22;20951;50.818;4.344;2022-12-29T07:20:25;10.90;99.90
34726;DHT22;20951;50.818;4.344;2022-12-29T07:22:51;11.00;99.90
34726;DHT22;20951;50.818;4.344;2022-12-29T07:25:17;10.90;99.90
34726;DHT22;20951;50.818;4.344;2022-12-29T07:27:43;10.90;99.90
34726;DHT22;20951;50.818;4.344;2022-12-29T07:30:09;10.80;99.90
34726;DHT22;20951;50.818;4.344;2022-12-29T07:32:35;10.90;99.90
34726;DHT22;20951;50.818;4.344;2022-12-29T07:35:01;10.90;99.90
34726;DHT22;20951;50.818;4.344;2022-12-29T07:37:27;10.90;99.90
34726;DHT22;20951;50.818;4.344;2022-12-29T07:39:53;10.80;99.90
34726;DHT22;20951;50.818;4.344;2022-12-29T07:42:19;10.80;99.90
34726;DHT22;20951;50.818;4.344;2022-12-29T07:44:45;10.90;99.90
34726;DHT22;20951;50.818;4.344;2022-12-29T07:47:10;10.90;99.90
34726;DHT22;20951;50.818;4.344;2022-12-29T07:49:39;10.90;99.90
34726;DHT22;20951;50.818;4.344;2022-12-29T07:52:05;10.90;99.90
34726;DHT22;20951;50.818;4.344;2022-12-29T07:54:31;10.90;99.90
34726;DHT22;20951;50.818;4.344;2022-12-29T07:56:57;10.80;99.90
34726;DHT22;20951;50.818;4.344;2022-12-29T07:59:26;10.80;99.90
34726;DHT22;20951;50.818;4.344;2022-12-29T08:01:52;10.90;99.90
34726;DHT22;20951;50.818;4.344;2022-12-29T08:04:18;10.90;99.90
34726;DHT22;20951;50.818;4.344;2022-12-29T08:06:47;10.90;99.90
34726;DHT22;20951;50.818;4.344;2022-12-29T08:09:13;10.90;99.90
34726;DHT22;20951;50.818;4.344;2022-12-29T08:11:38;10.80;99.90
34726;DHT22;20951;50.818;4.344;2022-12-29T08:14:05;10.90;99.90
34726;DHT22;20951;50.818;4.344;2022-12-29T08:16:32;10.90;99.90
34726;DHT22;20951;50.818;4.344;2022-12-29T08:18:58;10.80;99.90
34726;DHT22;20951;50.818;4.344;2022-12-29T08:21:24;10.80;99.90
34726;DHT22;20951;50.818;4.344;2022-12-29T08:23:50;10.80;99.90
34726;DHT22;20951;50.818;4.344;2022-12-29T08:26:16;10.80;99.90
34726;DHT22;20951;50.818;4.344;2022-12-29T08:28:43;10.80;99.90
34726;DHT22;20951;50.818;4.344;2022-12-29T08:31:09;10.90;99.90
34726;DHT22;20951;50.818;4.344;2022-12-29T08:33:35;10.90;99.90
34726;DHT22;20951;50.818;4.344;2022-12-29T08:36:04;10.90;99.90
34726;DHT22;20951;50.818;4.344;2022-12-29T08:38:30;10.80;99.90
34726;DHT22;20951;50.818;4.344;2022-12-29T08:40:58;10.80;99.90
34726;DHT22;20951;50.818;4.344;2022-12-29T08:43:24;10.70;99.90
34726;DHT22;20951;50.818;4.344;2022-12-29T08:45:50;10.80;99.90
34726;DHT22;20951;50.818;4.344;2022-12-29T08:48:16;10.80;99.90
34726;DHT22;20951;50.818;4.344;2022-12-29T08:50:45;10.80;99.90
34726;DHT22;20951;50.818;4.344;2022-12-29T08:53:12;10.90;99.90
34726;DHT22;20951;50.818;4.344;2022-12-29T08:55:38;10.90;99.90
34726;DHT22;20951;50.818;4.344;2022-12-29T08:58:04;10.90;99.90
34726;DHT22;20951;50.818;4.344;2022-12-29T09:00:29;11.00;99.90
34726;DHT22;20951;50.818;4.344;2022-12-29T09:02:55;11.10;99.90
34726;DHT22;20951;50.818;4.344;2022-12-29T09:05:21;10.90;99.90
34726;DHT22;20951;50.818;4.344;2022-12-29T09:07:47;10.90;99.90
34726;DHT22;20951;50.818;4.344;2022-12-29T09:10:12;10.80;99.90
34726;DHT22;20951;50.818;4.344;2022-12-29T09:12:38;10.80;99.90
34726;DHT22;20951;50.818;4.344;2022-12-29T09:15:05;10.70;99.90
34726;DHT22;20951;50.818;4.344;2022-12-29T09:17:31;10.70;99.90
34726;DHT22;20951;50.818;4.344;2022-12-29T09:20:17;10.80;99.90
34726;DHT22;20951;50.818;4.344;2022-12-29T09:22:44;10.70;99.90
34726;DHT22;20951;50.818;4.344;2022-12-29T09:25:11;10.70;99.90
34726;DHT22;20951;50.818;4.344;2022-12-29T09:27:37;10.60;99.90
34726;DHT22;20951;50.818;4.344;2022-12-29T09:30:04;10.50;99.90
34726;DHT22;20951;50.818;4.344;2022-12-29T09:32:32;10.40;99.90
34726;DHT22;20951;50.818;4.344;2022-12-29T09:34:58;10.50;99.90
34726;DHT22;20951;50.818;4.344;2022-12-29T09:37:24;10.40;99.90
34726;DHT22;20951;50.818;4.344;2022-12-29T09:39:49;10.60;99.90
34726;DHT22;20951;50.818;4.344;2022-12-29T09:42:22;10.60;99.90
34726;DHT22;20951;50.818;4.344;2022-12-29T09:45:18;10.60;99.90
34726;DHT22;20951;50.818;4.344;2022-12-29T09:47:46;10.60;99.90
34726;DHT22;20951;50.818;4.344;2022-12-29T09:50:33;10.70;99.90
34726;DHT22;20951;50.818;4.344;2022-12-29T09:55:35;11.00;99.90
34726;DHT22;20951;50.818;4.344;2022-12-29T10:03:50;11.30;99.90
34726;DHT22;20951;50.818;4.344;2022-12-29T10:06:29;11.30;99.90
34726;DHT22;20951;50.818;4.344;2022-12-29T10:12:06;11.20;99.90
34726;DHT22;20951;50.818;4.344;2022-12-29T10:17:55;11.00;99.90
34726;DHT22;20951;50.818;4.344;2022-12-29T10:26:23;11.10;99.90
34726;DHT22;20951;50.818;4.344;2022-12-29T10:28:56;11.10;99.90
34726;DHT22;20951;50.818;4.344;2022-12-29T10:31:43;11.10;99.90
34726;DHT22;20951;50.818;4.344;2022-12-29T10:34:24;11.00;99.90
34726;DHT22;20951;50.818;4.344;2022-12-29T10:36:58;11.00;99.90
34726;DHT22;20951;50.818;4.344;2022-12-29T10:39:27;11.10;99.90
34726;DHT22;20951;50.818;4.344;2022-12-29T10:42:11;11.20;99.90
34726;DHT22;20951;50.818;4.344;2022-12-29T10:44:40;11.10;99.90
34726;DHT22;20951;50.818;4.344;2022-12-29T10:47:14;11.20;99.90
34726;DHT22;20951;50.818;4.344;2022-12-29T10:49:47;11.10;99.90
34726;DHT22;20951;50.818;4.344;2022-12-29T10:52:15;11.20;99.90
34726;DHT22;20951;50.818;4.344;2022-12-29T10:54:59;11.20;99.90
34726;DHT22;20951;50.818;4.344;2022-12-29T10:57:41;11.30;99.90
34726;DHT22;20951;50.818;4.344;2022-12-29T11:00:21;11.20;99.90
34726;DHT22;20951;50.818;4.344;2022-12-29T11:05:42;11.50;99.90
34726;DHT22;20951;50.818;4.344;2022-12-29T11:08:17;11.50;99.90
34726;DHT22;20951;50.818;4.344;2022-12-29T11:10:46;11.70;99.90
34726;DHT22;20951;50.818;4.344;2022-12-29T11:13:29;11.70;99.90
34726;DHT22;20951;50.818;4.344;2022-12-29T11:15:56;11.60;99.90
34726;DHT22;20951;50.818;4.344;2022-12-29T11:18:33;11.70;99.90
34726;DHT22;20951;50.818;4.344;2022-12-29T11:21:09;11.70;99.90
34726;DHT22;20951;50.818;4.344;2022-12-29T11:23:56;11.80;99.90
34726;DHT22;20951;50.818;4.344;2022-12-29T11:26:26;11.80;99.90
34726;DHT22;20951;50.818;4.344;2022-12-29T11:31:46;11.60;99.90
34726;DHT22;20951;50.818;4.344;2022-12-29T11:34:32;11.40;99.90
34726;DHT22;20951;50.818;4.344;2022-12-29T11:37:19;11.20;99.90
34726;DHT22;20951;50.818;4.344;2022-12-29T11:39:59;11.10;99.90
34726;DHT22;20951;50.818;4.344;2022-12-29T11:42:52;11.10;99.90
34726;DHT22;20951;50.818;4.344;2022-12-29T11:45:25;11.10;99.90
34726;DHT22;20951;50.818;4.344;2022-12-29T11:47:55;11.00;99.90
34726;DHT22;20951;50.818;4.344;2022-12-29T11:50:28;11.10;99.90
34726;DHT22;20951;50.818;4.344;2022-12-29T11:53:25;11.10;99.90
34726;DHT22;20951;50.818;4.344;2022-12-29T11:56:02;11.10;99.90
34726;DHT22;20951;50.818;4.344;2022-12-29T11:58:30;11.10;99.90
34726;DHT22;20951;50.818;4.344;2022-12-29T12:01:04;11.10;99.90
34726;DHT22;20951;50.818;4.344;2022-12-29T12:03:32;11.10;99.90
34726;DHT22;20951;50.818;4.344;2022-12-29T12:06:07;11.00;99.90
34726;DHT22;20951;50.818;4.344;2022-12-29T12:08:53;11.10;99.90
34726;DHT22;20951;50.818;4.344;2022-12-29T12:11:25;11.10;99.90
34726;DHT22;20951;50.818;4.344;2022-12-29T12:14:23;11.20;99.90
34726;DHT22;20951;50.818;4.344;2022-12-29T12:16:55;11.20;99.90
34726;DHT22;20951;50.818;4.344;2022-12-29T12:22:07;11.10;99.90
34726;DHT22;20951;50.818;4.344;2022-12-29T12:24:42;11.10;99.90
34726;DHT22;20951;50.818;4.344;2022-12-29T12:27:22;11.00;99.90
34726;DHT22;20951;50.818;4.344;2022-12-29T12:29:59;11.00;99.90
34726;DHT22;20951;50.818;4.344;2022-12-29T12:35:16;10.80;99.90
34726;DHT22;20951;50.818;4.344;2022-12-29T12:45:49;10.90;99.90
34726;DHT22;20951;50.818;4.344;2022-12-29T12:53:48;11.00;99.90
34726;DHT22;20951;50.818;4.344;2022-12-29T13:05:24;10.90;99.90
34726;DHT22;20951;50.818;4.344;2022-12-29T13:08:07;10.80;99.90
34726;DHT22;20951;50.818;4.344;2022-12-29T13:10:42;10.90;99.90
34726;DHT22;20951;50.818;4.344;2022-12-29T13:21:48;10.80;99.90
34726;DHT22;20951;50.818;4.344;2022-12-29T13:24:36;10.80;99.90
34726;DHT22;20951;50.818;4.344;2022-12-29T13:30:27;10.90;99.90
34726;DHT22;20951;50.818;4.344;2022-12-29T13:36:03;11.00;99.90
34726;DHT22;20951;50.818;4.344;2022-12-29T13:41:37;10.90;99.90
34726;DHT22;20951;50.818;4.344;2022-12-29T13:44:05;10.90;99.90
34726;DHT22;20951;50.818;4.344;2022-12-29T13:46:39;11.00;99.90
34726;DHT22;20951;50.818;4.344;2022-12-29T13:49:27;11.10;99.90
34726;DHT22;20951;50.818;4.344;2022-12-29T13:51:59;11.20;99.90
34726;DHT22;20951;50.818;4.344;2022-12-29T14:02:50;11.00;99.90
34726;DHT22;20951;50.818;4.344;2022-12-29T14:08:00;10.90;99.90
34726;DHT22;20951;50.818;4.344;2022-12-29T14:10:38;10.80;99.90
34726;DHT22;20951;50.818;4.344;2022-12-29T14:13:11;10.90;99.90
34726;DHT22;20951;50.818;4.344;2022-12-29T14:15:55;10.80;99.90
34726;DHT22;20951;50.818;4.344;2022-12-29T14:18:26;10.90;99.90
34726;DHT22;20951;50.818;4.344;2022-12-29T14:23:47;10.90;99.90
34726;DHT22;20951;50.818;4.344;2022-12-29T14:26:33;11.00;99.90
34726;DHT22;20951;50.818;4.344;2022-12-29T14:31:50;11.20;99.90
34726;DHT22;20951;50.818;4.344;2022-12-29T14:34:27;11.20;99.90
34726;DHT22;20951;50.818;4.344;2022-12-29T14:37:01;11.10;99.90
34726;DHT22;20951;50.818;4.344;2022-12-29T14:39:41;11.10;99.90
34726;DHT22;20951;50.818;4.344;2022-12-29T14:50:02;11.00;99.90
34726;DHT22;20951;50.818;4.344;2022-12-29T14:52:30;10.90;99.90
34726;DHT22;20951;50.818;4.344;2022-12-29T14:55:38;11.00;99.90
34726;DHT22;20951;50.818;4.344;2022-12-29T14:58:17;10.80;99.90
34726;DHT22;20951;50.818;4.344;2022-12-29T15:00:44;10.80;99.90
34726;DHT22;20951;50.818;4.344;2022-12-29T15:03:23;10.60;99.90
34726;DHT22;20951;50.818;4.344;2022-12-29T15:06:07;10.50;99.90
34726;DHT22;20951;50.818;4.344;2022-12-29T15:11:53;10.00;99.90
34726;DHT22;20951;50.818;4.344;2022-12-29T15:14:33;9.60;99.90
34726;DHT22;20951;50.818;4.344;2022-12-29T15:17:00;9.20;99.90
34726;DHT22;20951;50.818;4.344;2022-12-29T15:19:29;9.10;99.90
34726;DHT22;20951;50.818;4.344;2022-12-29T15:21:57;9.10;99.90
34726;DHT22;20951;50.818;4.344;2022-12-29T15:24:24;8.90;99.90
34726;DHT22;20951;50.818;4.344;2022-12-29T15:26:51;8.80;99.90
34726;DHT22;20951;50.818;4.344;2022-12-29T15:29:40;8.80;99.90
34726;DHT22;20951;50.818;4.344;2022-12-29T15:32:16;8.60;99.90
34726;DHT22;20951;50.818;4.344;2022-12-29T15:34:43;8.50;99.90
34726;DHT22;20951;50.818;4.344;2022-12-29T15:37:15;8.50;99.90
34726;DHT22;20951;50.818;4.344;2022-12-29T15:39:42;8.40;99.90
34726;DHT22;20951;50.818;4.344;2022-12-29T15:45:12;8.60;99.90
34726;DHT22;20951;50.818;4.344;2022-12-29T15:47:40;8.60;99.90
34726;DHT22;20951;50.818;4.344;2022-12-29T15:52:45;8.80;99.90
34726;DHT22;20951;50.818;4.344;2022-12-29T15:55:38;8.90;99.90
34726;DHT22;20951;50.818;4.344;2022-12-29T15:58:19;8.90;99.90
34726;DHT22;20951;50.818;4.344;2022-12-29T16:00:57;9.00;99.90
34726;DHT22;20951;50.818;4.344;2022-12-29T16:03:25;8.90;99.90
34726;DHT22;20951;50.818;4.344;2022-12-29T16:05:58;8.70;99.90
34726;DHT22;20951;50.818;4.344;2022-12-29T16:08:35;8.60;99.90
34726;DHT22;20951;50.818;4.344;2022-12-29T16:14:12;8.50;99.90
34726;DHT22;20951;50.818;4.344;2022-12-29T16:16:40;8.50;99.90
34726;DHT22;20951;50.818;4.344;2022-12-29T16:19:17;8.40;99.90
34726;DHT22;20951;50.818;4.344;2022-12-29T16:21:44;8.50;99.90
34726;DHT22;20951;50.818;4.344;2022-12-29T16:24:17;8.50;99.90
34726;DHT22;20951;50.818;4.344;2022-12-29T16:27:17;8.40;99.90
34726;DHT22;20951;50.818;4.344;2022-12-29T16:29:53;8.40;99.90
34726;DHT22;20951;50.818;4.344;2022-12-29T16:32:25;8.40;99.90
34726;DHT22;20951;50.818;4.344;2022-12-29T16:35:38;8.50;99.90
34726;DHT22;20951;50.818;4.344;2022-12-29T16:37:39;8.50;99.90
34726;DHT22;20951;50.818;4.344;2022-12-29T16:48:35;8.80;99.90
34726;DHT22;20951;50.818;4.344;2022-12-29T16:51:13;8.80;99.90
34726;DHT22;20951;50.818;4.344;2022-12-29T16:53:41;8.90;99.90
34726;DHT22;20951;50.818;4.344;2022-12-29T16:56:19;8.80;99.90
34726;DHT22;20951;50.818;4.344;2022-12-29T16:58:51;8.80;99.90
34726;DHT22;20951;50.818;4.344;2022-12-29T17:01:20;8.70;99.90
34726;DHT22;20951;50.818;4.344;2022-12-29T17:03:52;8.60;99.90
34726;DHT22;20951;50.818;4.344;2022-12-29T17:06:20;8.70;99.90
34726;DHT22;20951;50.818;4.344;2022-12-29T17:08:47;8.70;99.90
34726;DHT22;20951;50.818;4.344;2022-12-29T17:11:28;8.70;99.90
34726;DHT22;20951;50.818;4.344;2022-12-29T17:17:03;8.80;99.90
34726;DHT22;20951;50.818;4.344;2022-12-29T17:19:35;8.70;99.90
34726;DHT22;20951;50.818;4.344;2022-12-29T17:22:02;8.80;99.90
34726;DHT22;20951;50.818;4.344;2022-12-29T17:24:28;8.80;99.90
34726;DHT22;20951;50.818;4.344;2022-12-29T17:26:57;8.80;99.90
34726;DHT22;20951;50.818;4.344;2022-12-29T17:29:34;8.80;99.90
34726;DHT22;20951;50.818;4.344;2022-12-29T17:32:03;8.80;99.90
34726;DHT22;20951;50.818;4.344;2022-12-29T17:34:31;8.80;99.90
34726;DHT22;20951;50.818;4.344;2022-12-29T17:37:01;8.90;99.90
34726;DHT22;20951;50.818;4.344;2022-12-29T17:39:27;8.90;99.90
34726;DHT22;20951;50.818;4.344;2022-12-29T17:41:53;8.90;99.90
34726;DHT22;20951;50.818;4.344;2022-12-29T17:44:20;8.90;99.90
34726;DHT22;20951;50.818;4.344;2022-12-29T17:46:47;9.00;99.90
34726;DHT22;20951;50.818;4.344;2022-12-29T17:49:15;9.10;99.90
34726;DHT22;20951;50.818;4.344;2022-12-29T17:51:45;9.20;99.90
34726;DHT22;20951;50.818;4.344;2022-12-29T17:54:23;9.00;99.90
34726;DHT22;20951;50.818;4.344;2022-12-29T17:56:49;9.00;99.90
34726;DHT22;20951;50.818;4.344;2022-12-29T17:59:18;8.90;99.90
34726;DHT22;20951;50.818;4.344;2022-12-29T18:01:45;8.80;99.90
34726;DHT22;20951;50.818;4.344;2022-12-29T18:04:16;8.70;99.90
34726;DHT22;20951;50.818;4.344;2022-12-29T18:06:45;8.70;99.90
34726;DHT22;20951;50.818;4.344;2022-12-29T18:09:12;8.70;99.90
34726;DHT22;20951;50.818;4.344;2022-12-29T18:11:42;8.60;99.90
34726;DHT22;20951;50.818;4.344;2022-12-29T18:14:16;8.50;99.90
34726;DHT22;20951;50.818;4.344;2022-12-29T18:16:42;8.50;99.90
34726;DHT22;20951;50.818;4.344;2022-12-29T18:19:10;8.50;99.90
34726;DHT22;20951;50.818;4.344;2022-12-29T18:21:43;8.50;99.90
34726;DHT22;20951;50.818;4.344;2022-12-29T18:24:13;8.50;99.90